createdAt,value
2023-05-19T00:04:14.755Z,100555.81
2023-05-19T00:14:21.612Z,100552.88
2023-05-19T00:24:27.400Z,100546.14
2023-05-19T00:34:33.028Z,100545.49
2023-05-19T00:44:41.879Z,100542.14
2023-05-19T00:54:48.136Z,100537.83
2023-05-19T01:04:56.290Z,100533.17
2023-05-19T01:15:02.890Z,100536.50
2023-05-19T01:25:44.232Z,100535.46
2023-05-19T01:35:51.324Z,100545.84
2023-05-19T01:45:58.987Z,100545.20
2023-05-19T01:56:05.296Z,100547.67
2023-05-19T02:06:24.131Z,100544.89
2023-05-19T02:16:31.333Z,100531.38
2023-05-19T02:26:36.994Z,100524.98
2023-05-19T02:36:44.196Z,100519.61
2023-05-19T02:46:49.882Z,100510.90
2023-05-19T02:56:55.627Z,100512.45
2023-05-19T03:07:02.283Z,100512.08
2023-05-19T03:17:10.325Z,100510.61
2023-05-19T03:27:16.911Z,100503.62
2023-05-19T03:37:22.644Z,100508.80
2023-05-19T03:47:28.405Z,100512.88
2023-05-19T03:57:34.747Z,100511.09
2023-05-19T04:07:40.509Z,100509.71
2023-05-19T04:17:46.406Z,100518.09
2023-05-19T04:27:53.010Z,100527.48
2023-05-19T04:37:58.761Z,100524.76
2023-05-19T04:48:05.411Z,100522.60
2023-05-19T04:58:11.359Z,100515.56
2023-05-19T05:08:22.964Z,100520.98
2023-05-19T05:18:29.963Z,100516.23
2023-05-19T05:28:35.550Z,100512.77
2023-05-19T05:38:41.205Z,100509.61
2023-05-19T05:48:48.222Z,100513.64
2023-05-19T05:58:53.990Z,100508.68
2023-05-19T06:08:59.752Z,100506.02
2023-05-19T06:19:05.888Z,100510.76
2023-05-19T06:29:11.942Z,100514.40
2023-05-19T06:39:17.784Z,100527.92
2023-05-19T06:49:24.149Z,100520.88
2023-05-19T06:59:29.875Z,100520.71
2023-05-19T07:09:35.803Z,100515.23
2023-05-19T07:19:41.536Z,100519.39
2023-05-19T07:29:47.336Z,100522.64
2023-05-19T07:39:53.068Z,100520.91
2023-05-19T07:49:58.912Z,100531.16
2023-05-19T08:00:07.788Z,100532.71
2023-05-19T08:10:13.834Z,100525.13
2023-05-19T08:20:20.556Z,100516.27
2023-05-19T08:30:26.367Z,100511.05
2023-05-19T08:40:33.034Z,100521.43
2023-05-19T08:50:43.695Z,100514.42
2023-05-19T09:00:51.243Z,100521.61
2023-05-19T09:10:57.020Z,100519.45
2023-05-19T09:21:03.639Z,100511.13
2023-05-19T09:31:11.056Z,100517.66
2023-05-19T09:41:17.676Z,100524.33
2023-05-19T09:51:23.648Z,100513.47
2023-05-19T10:01:30.314Z,100518.51
2023-05-19T10:11:36.582Z,100518.48
2023-05-19T10:21:42.713Z,100502.84
2023-05-19T10:31:51.877Z,100498.59
2023-05-19T10:42:06.486Z,100499.70
2023-05-19T10:52:26.222Z,100503.52
2023-05-19T11:02:43.339Z,100503.23
2023-05-19T11:12:49.216Z,100508.91
2023-05-19T11:23:11.660Z,100510.67
2023-05-19T11:33:20.015Z,100510.05
2023-05-19T11:43:29.004Z,100510.58
2023-05-19T11:53:36.393Z,100514.79
2023-05-19T12:03:42.412Z,100512.56
2023-05-19T12:13:50.382Z,100509.42
2023-05-19T12:23:56.415Z,100508.17
2023-05-19T12:34:02.833Z,100500.55
2023-05-19T12:44:18.354Z,100504.44
2023-05-19T12:54:24.945Z,100502.77
2023-05-19T13:04:31.092Z,100502.35
2023-05-19T13:14:37.775Z,100496.74
2023-05-19T13:24:43.604Z,100500.20
2023-05-19T13:34:49.449Z,100491.89
2023-05-19T13:44:58.394Z,100493.13
2023-05-19T13:55:04.297Z,100493.23
2023-05-19T14:05:10.864Z,100489.72
2023-05-19T14:15:16.615Z,100488.15
2023-05-19T14:25:23.547Z,100485.46
2023-05-19T14:35:29.244Z,100483.60
2023-05-19T14:45:35.386Z,100488.96
2023-05-19T14:55:41.407Z,100489.88
2023-05-19T15:05:47.155Z,100495.65
2023-05-19T15:16:08.249Z,100493.13
2023-05-19T15:26:22.497Z,100497.23
2023-05-19T15:36:28.464Z,100494.05
2023-05-19T15:46:34.754Z,100489.15
2023-05-19T15:56:40.804Z,100486.80
2023-05-19T16:06:46.676Z,100479.27
2023-05-19T16:16:52.691Z,100478.00
2023-05-19T16:26:58.711Z,100480.15
2023-05-19T16:37:04.774Z,100476.43
2023-05-19T16:47:10.627Z,100482.25
2023-05-19T16:57:16.424Z,100482.41
2023-05-19T17:07:22.221Z,100491.66
2023-05-19T17:17:28.458Z,100496.88
2023-05-19T17:27:34.344Z,100499.10
2023-05-19T17:37:40.256Z,100497.58
2023-05-19T17:47:46.008Z,100486.32
2023-05-19T17:57:52.507Z,100488.66
2023-05-19T18:07:59.286Z,100492.02
2023-05-19T18:18:07.797Z,100491.50
2023-05-19T18:28:13.572Z,100498.85
2023-05-19T18:38:19.372Z,100504.47
2023-05-19T18:48:25.632Z,100516.66
2023-05-19T18:58:31.583Z,100522.61
2023-05-19T19:08:37.429Z,100526.95
2023-05-19T19:18:43.494Z,100525.25
2023-05-19T19:28:49.242Z,100526.34
2023-05-19T19:38:55.005Z,100524.09
2023-05-19T19:49:01.577Z,100526.23
2023-05-19T19:59:07.485Z,100530.73
2023-05-19T20:09:13.458Z,100535.76
2023-05-19T20:19:19.214Z,100542.45
2023-05-19T20:29:25.013Z,100539.18
2023-05-19T20:39:31.288Z,100544.02
2023-05-19T20:49:37.458Z,100545.15
2023-05-19T20:59:43.566Z,100537.00
2023-05-19T21:09:51.416Z,100537.49
2023-05-19T21:19:59.710Z,100541.88
2023-05-19T21:30:06.927Z,100543.73
2023-05-19T21:40:14.239Z,100539.52
2023-05-19T21:50:20.277Z,100538.83
2023-05-19T22:00:25.968Z,100538.25
2023-05-19T22:10:32.460Z,100534.92
2023-05-19T22:20:38.514Z,100528.90
2023-05-19T22:30:44.341Z,100527.34
2023-05-19T22:40:50.921Z,100527.66
2023-05-19T22:50:56.869Z,100523.80
2023-05-19T23:01:02.893Z,100531.02
2023-05-19T23:11:09.256Z,100518.81
2023-05-19T23:21:15.094Z,100516.50
2023-05-19T23:31:21.090Z,100517.59
2023-05-19T23:41:27.136Z,100522.99
2023-05-19T23:51:33.058Z,100520.10
